Lebanon, NJ (08833)

7:39 AM EDT on August 27, 2016 (GMT -0400)
Myrtle Ave | | Change Station

Elev 374 ft 40.64 °N, 74.84 °W | Updated 8 seconds ago

Clear
Clear
73.8 °F
Feels Like 75 °F
N
0.0
Wind Variable Wind from East
Gusts 1.0 mph

Today
High -- | Low -- °F
--% Chance of Precip.
Yesterday
High -- | Low -- °F
Precip. -- in
Pressure 30.16 in
Visibility 6.0 miles
Clouds Clear
Heat Index 75 °F
Dew Point 65 °F
Humidity 75%
Rainfall 0.00 in
Snow Depth Not available.
6:21 AM 7:38 PM
Waning Crescent, 25% visible
METAR KSMQ 271053Z AUTO 00000KT 6SM BR CLR 18/17 A3016 RMK AO2 SLP212 T01780167
Pressure 30.16 in
Visibility 6.0 miles
Clouds Clear
Heat Index 75 °F
Dew Point 65 °F
Humidity 75%
Rainfall 0.00 in
Snow Depth Not available.
6:21 AM 7:38 PM
Waning Crescent, 25% visible
METAR KSMQ 271053Z AUTO 00000KT 6SM BR CLR 18/17 A3016 RMK AO2 SLP212 T01780167

10-Day Weather Forecast

Almanac

Astronomy

Aug. 27, 2016 Rise Set
Actual Time
Civil Twilight
Nautical Twilight
Astronomical Twilight
Moon
Length of Visible Light
Length of Day
Tomorrow will be .
, % of the Moon is Illuminated

Today's Extremes

State Highs State Lows

Community

WunderPhotos

Upload Photos

1,935,322 photos uploaded!

WunderBlog® & News

Nearby

Air Quality

  Air Quality AQ Index Pollutant
Not available.

Snow Depth

Station Depth Elevation

Earthquake Activity

City Distance Mag. Time & Date
Minimum magnitude displayed is 2.5.

Coastal Water Temperatures

Place Temperature

Stations

Nearby Weather Stations

Station Location Temp. Windchill Dew Point Humidity Wind Precip. Elev Updated Type
                   

Watches & Warnings

There are currently no watches in effect.